Time;durP1;ratioP1;P1;durP2;ratioP2;P2;SDS_P1;SDS_P2;PMS_P1;PMS_P2;Temp;Humidity;BMP_temperature;BMP_pressure;BME280_temperature;BME280_humidity;BME280_pressure;Samples;Min_cycle;Max_cycle;Signal;HPM_P1;HPM_P2
2021/06/26 00:00:19;;;;;;;2.22;1.40;;;;;;;17.08;66.60;93079.47;2068511;69;20246;-77
2021/06/26 00:02:45;;;;;;;3.05;1.88;;;;;;;17.04;67.10;93082.88;2072008;69;20218;-76
2021/06/26 00:05:12;;;;;;;2.83;1.83;;;;;;;17.23;65.59;93084.41;2071731;69;20276;-74
2021/06/26 00:07:38;;;;;;;21.17;13.45;;;;;;;17.22;64.59;93075.13;2071842;69;20182;-74
2021/06/26 00:10:08;;;;;;;18.17;11.57;;;;;;;17.24;64.80;93080.91;2071806;69;20178;-75
2021/06/26 00:12:34;;;;;;;16.13;10.10;;;;;;;17.33;65.58;93081.25;2071622;69;20290;-75
2021/06/26 00:14:59;;;;;;;11.73;6.30;;;;;;;17.25;66.13;93081.63;2071661;69;20139;-77
2021/06/26 00:17:25;;;;;;;5.45;2.67;;;;;;;17.34;64.90;93085.56;2071820;69;20605;-75
2021/06/26 00:19:51;;;;;;;5.20;2.90;;;;;;;17.27;64.96;93081.72;2071428;69;20136;-75
2021/06/26 00:22:17;;;;;;;6.10;2.60;;;;;;;17.13;64.49;93081.84;2071640;69;20580;-76
2021/06/26 00:24:43;;;;;;;5.55;2.60;;;;;;;17.09;65.36;93080.94;2071072;69;20159;-74
2021/06/26 00:27:08;;;;;;;4.40;2.33;;;;;;;17.18;66.89;93080.66;2071355;69;20140;-73
2021/06/26 00:29:34;;;;;;;3.33;2.50;;;;;;;17.22;65.66;93080.81;2071832;69;20243;-76
2021/06/26 00:32:00;;;;;;;5.18;2.65;;;;;;;17.28;65.35;93080.34;2071935;69;20250;-74
2021/06/26 00:34:27;;;;;;;4.07;2.55;;;;;;;17.37;65.70;93079.31;2071884;69;20151;-76
2021/06/26 00:36:52;;;;;;;6.10;2.60;;;;;;;17.41;65.46;93079.47;2071756;69;20171;-76
2021/06/26 00:39:18;;;;;;;3.63;2.58;;;;;;;17.41;65.86;93079.47;2071824;69;20587;-75
2021/06/26 00:41:44;;;;;;;4.30;2.80;;;;;;;17.40;64.73;93080.09;2071771;69;20582;-75
2021/06/26 00:44:10;;;;;;;3.92;2.80;;;;;;;17.22;66.50;93080.06;2071831;69;20144;-74
2021/06/26 00:46:36;;;;;;;6.50;2.97;;;;;;;17.47;63.83;93076.16;2071851;69;20140;-75
2021/06/26 00:49:04;;;;;;;5.10;2.30;;;;;;;17.47;63.82;93074.03;2071855;69;20602;-75
2021/06/26 00:51:30;;;;;;;3.72;2.45;;;;;;;17.42;64.41;93075.25;2071725;69;20241;-74
2021/06/26 00:53:57;;;;;;;4.38;2.90;;;;;;;17.44;65.84;93069.63;2071900;69;20219;-77
2021/06/26 00:56:27;;;;;;;4.68;3.42;;;;;;;17.32;66.34;93072.00;2068424;69;20135;-76
2021/06/26 00:58:56;;;;;;;5.57;2.92;;;;;;;17.32;67.84;93063.44;2071768;69;20247;-75
2021/06/26 01:01:22;;;;;;;3.80;2.50;;;;;;;17.41;63.96;93056.72;2071837;69;20144;-75
2021/06/26 01:03:48;;;;;;;3.95;2.15;;;;;;;17.31;66.78;93061.25;2071645;69;20188;-75
2021/06/26 01:06:15;;;;;;;4.85;2.28;;;;;;;17.27;66.77;93054.00;2071863;69;20156;-75
2021/06/26 01:08:41;;;;;;;2.53;1.98;;;;;;;17.25;67.12;93042.53;2068360;69;20121;-76
2021/06/26 01:11:07;;;;;;;3.70;1.90;;;;;;;17.31;65.67;93041.31;2068364;69;20136;-75
2021/06/26 01:13:32;;;;;;;3.65;1.70;;;;;;;17.26;66.03;93034.72;2071732;69;20140;-75
2021/06/26 01:15:58;;;;;;;3.03;1.75;;;;;;;17.16;66.87;93042.84;2071780;69;20156;-75
2021/06/26 01:18:24;;;;;;;4.28;2.28;;;;;;;17.16;65.49;93043.56;2071801;69;20148;-76
2021/06/26 01:20:51;;;;;;;3.00;2.00;;;;;;;17.15;68.40;93036.44;2071797;69;20607;-74
2021/06/26 01:23:18;;;;;;;3.10;1.70;;;;;;;17.10;68.87;93036.91;2071724;69;20163;-74
2021/06/26 01:25:44;;;;;;;3.55;1.90;;;;;;;17.13;68.51;93036.34;2071530;69;20147;-76
2021/06/26 01:28:09;;;;;;;4.68;2.05;;;;;;;17.18;66.59;93043.69;2068518;69;20136;-76
2021/06/26 01:30:36;;;;;;;3.83;2.10;;;;;;;17.22;67.99;93043.81;2071775;69;20499;-75
2021/06/26 01:33:03;;;;;;;3.20;1.80;;;;;;;17.27;66.97;93044.72;2071781;69;20203;-75
2021/06/26 01:35:29;;;;;;;4.10;1.85;;;;;;;17.36;64.93;93048.63;2071792;69;20155;-75
2021/06/26 01:37:56;;;;;;;5.85;2.22;;;;;;;17.30;66.11;93051.97;2071781;69;21062;-75
2021/06/26 01:40:24;;;;;;;5.38;2.38;;;;;;;17.12;68.01;93048.38;2071779;69;20175;-75
2021/06/26 01:42:51;;;;;;;3.53;2.33;;;;;;;17.18;66.27;93046.53;2065533;69;20196;-75
2021/06/26 01:45:18;;;;;;;3.22;2.20;;;;;;;17.11;68.51;93041.22;2071877;69;20641;-75
2021/06/26 01:47:49;;;;;;;3.42;2.25;;;;;;;17.18;66.63;93049.38;2071715;69;20595;-75
2021/06/26 01:50:16;;;;;;;3.10;2.33;;;;;;;17.28;64.64;93049.06;2071763;69;20164;-75
2021/06/26 01:52:43;;;;;;;3.95;2.20;;;;;;;17.43;64.98;93051.09;2071586;69;20668;-75
2021/06/26 01:55:10;;;;;;;4.03;2.35;;;;;;;17.20;68.08;93045.88;2071674;69;20290;-76
2021/06/26 01:57:36;;;;;;;4.43;2.40;;;;;;;17.34;65.92;93043.59;2071737;69;20203;-76
2021/06/26 02:00:04;;;;;;;3.17;2.13;;;;;;;17.23;67.53;93038.88;2068390;69;20176;-76
2021/06/26 02:02:38;;;;;;;3.70;2.10;;;;;;;17.27;65.76;93034.09;2071649;69;20160;-75
2021/06/26 02:05:06;;;;;;;3.35;2.10;;;;;;;17.15;68.55;93039.28;2071704;69;20160;-76
2021/06/26 02:07:31;;;;;;;3.45;2.10;;;;;;;17.16;67.75;93040.00;2071723;69;20624;-75
2021/06/26 02:09:58;;;;;;;2.95;2.13;;;;;;;17.15;67.89;93042.13;2071745;69;20168;-76
2021/06/26 02:12:23;;;;;;;4.45;2.30;;;;;;;17.14;68.94;93034.25;2071766;69;20240;-76
2021/06/26 02:14:52;;;;;;;2.63;1.95;;;;;;;17.24;66.26;93035.38;2071848;69;20143;-75
2021/06/26 02:17:19;;;;;;;2.28;1.90;;;;;;;17.21;67.64;93030.25;2071858;69;20175;-76
2021/06/26 02:19:45;;;;;;;3.97;2.28;;;;;;;17.20;67.15;93029.53;2071671;69;20144;-76
2021/06/26 02:22:10;;;;;;;2.88;2.25;;;;;;;16.98;68.76;93022.91;2071870;69;20142;-75
2021/06/26 02:24:36;;;;;;;2.70;2.05;;;;;;;17.03;68.11;93025.25;2071766;69;20152;-76
2021/06/26 02:27:02;;;;;;;3.97;2.00;;;;;;;17.19;68.46;93041.56;2068275;69;20152;-76
2021/06/26 02:29:27;;;;;;;4.10;2.22;;;;;;;17.20;67.16;93038.06;2071705;69;20199;-76
2021/06/26 02:31:53;;;;;;;2.30;2.10;;;;;;;16.77;70.70;93038.38;2071668;69;20530;-75
2021/06/26 02:34:19;;;;;;;2.88;2.30;;;;;;;16.55;70.62;93040.22;2071725;69;20144;-76
2021/06/26 02:36:45;;;;;;;4.15;2.17;;;;;;;16.39;72.47;93040.22;2071768;69;20205;-75
2021/06/26 02:39:10;;;;;;;2.47;2.03;;;;;;;16.27;73.06;93038.31;2071623;69;20136;-75
2021/06/26 02:41:36;;;;;;;4.05;1.95;;;;;;;16.39;70.94;93037.38;2071692;69;20598;-75
2021/06/26 02:44:02;;;;;;;5.85;2.20;;;;;;;16.64;70.95;93037.09;2071595;69;20663;-76
2021/06/26 02:46:27;;;;;;;4.18;2.63;;;;;;;16.63;70.71;93035.63;2071627;69;20640;-75
2021/06/26 02:48:53;;;;;;;2.53;2.00;;;;;;;16.71;68.36;93035.22;2071660;69;20140;-76
2021/06/26 02:51:19;;;;;;;3.75;2.15;;;;;;;16.40;71.13;93048.13;2071551;69;20594;-75
2021/06/26 02:53:44;;;;;;;3.75;2.22;;;;;;;16.24;73.21;93042.41;2071683;69;20258;-76
2021/06/26 02:56:10;;;;;;;2.50;2.10;;;;;;;16.24;72.97;93038.84;2071784;69;20243;-75
2021/06/26 02:58:36;;;;;;;3.05;2.20;;;;;;;15.98;74.22;93032.69;2071687;69;20144;-75
2021/06/26 03:01:01;;;;;;;2.67;2.22;;;;;;;15.92;74.92;93038.09;2071581;69;20586;-76
2021/06/26 03:03:27;;;;;;;4.47;2.20;;;;;;;16.18;73.42;93033.63;2071651;69;20167;-76
2021/06/26 03:05:53;;;;;;;2.60;2.13;;;;;;;16.38;71.64;93033.81;2071687;69;20254;-76
2021/06/26 03:08:19;;;;;;;3.28;2.40;;;;;;;16.59;69.88;93034.72;2071550;69;20201;-76
2021/06/26 03:10:44;;;;;;;2.90;2.08;;;;;;;16.59;70.76;93034.72;2071562;69;20137;-76
2021/06/26 03:13:10;;;;;;;4.03;2.45;;;;;;;16.48;71.63;93030.69;2071441;69;20140;-75
2021/06/26 03:15:35;;;;;;;3.92;2.30;;;;;;;16.44;71.61;93024.81;2071421;69;20140;-76
2021/06/26 03:18:01;;;;;;;2.83;2.22;;;;;;;16.63;69.37;93024.25;2071501;69;20144;-75
2021/06/26 03:20:27;;;;;;;4.00;2.60;;;;;;;16.69;69.50;93020.94;2071637;69;20140;-75
2021/06/26 03:22:53;;;;;;;3.80;2.30;;;;;;;16.46;70.92;93014.28;2071495;69;20205;-75
2021/06/26 03:25:18;;;;;;;3.38;2.33;;;;;;;16.44;71.34;93022.69;2071506;69;20243;-76
2021/06/26 03:27:44;;;;;;;4.13;2.55;;;;;;;16.49;71.50;93024.38;2068169;69;20194;-76
2021/06/26 03:30:10;;;;;;;2.75;2.10;;;;;;;16.48;71.54;93025.72;2071519;69;20168;-74
2021/06/26 03:32:36;;;;;;;5.63;2.38;;;;;;;16.37;71.74;93029.50;2071545;69;20175;-76
2021/06/26 03:35:02;;;;;;;2.53;2.20;;;;;;;16.60;68.79;93022.69;2071722;69;20575;-76
2021/06/26 03:37:28;;;;;;;4.18;2.10;;;;;;;16.82;67.53;93020.13;2071514;69;20274;-76
2021/06/26 03:39:53;;;;;;;3.30;2.03;;;;;;;16.86;67.83;93016.69;2071504;69;20144;-76
2021/06/26 03:42:20;;;;;;;2.65;2.22;;;;;;;16.66;69.37;93025.78;2071490;69;20163;-75
2021/06/26 03:44:45;;;;;;;3.47;2.13;;;;;;;16.37;71.04;93025.94;2071541;69;20211;-75
2021/06/26 03:47:11;;;;;;;2.90;1.95;;;;;;;16.37;70.20;93017.41;2071356;69;20151;-75
2021/06/26 03:49:38;;;;;;;2.78;1.77;;;;;;;16.58;68.74;93024.69;2071421;69;20522;-75
2021/06/26 03:52:05;;;;;;;3.40;2.17;;;;;;;16.59;69.90;93026.19;2071521;69;20175;-75
2021/06/26 03:54:31;;;;;;;2.60;2.10;;;;;;;16.58;69.78;93027.53;2071429;69;20140;-75
2021/06/26 03:56:57;;;;;;;3.65;2.30;;;;;;;16.61;69.39;93037.63;2068147;69;20141;-76
2021/06/26 03:59:22;;;;;;;3.72;2.15;;;;;;;16.74;69.37;93039.66;2071594;69;20213;-75
2021/06/26 04:01:48;;;;;;;4.55;2.17;;;;;;;16.75;67.56;93046.81;2071566;69;20155;-76
2021/06/26 04:04:14;;;;;;;2.50;2.05;;;;;;;16.38;70.95;93045.16;2071437;69;20231;-75
2021/06/26 04:06:39;;;;;;;3.60;1.98;;;;;;;16.29;71.77;93039.75;2071564;69;20148;-75
2021/06/26 04:09:05;;;;;;;3.28;2.10;;;;;;;16.34;71.11;93038.56;2071600;69;20160;-75
2021/06/26 04:11:30;;;;;;;3.45;2.30;;;;;;;16.18;72.93;93047.84;2071435;69;20179;-76
2021/06/26 04:13:56;;;;;;;2.80;2.10;;;;;;;16.30;71.96;93041.97;2071468;69;20147;-75
2021/06/26 04:16:22;;;;;;;2.35;2.15;;;;;;;16.27;72.01;93049.66;2071429;69;20152;-75
2021/06/26 04:18:47;;;;;;;3.90;2.28;;;;;;;16.33;71.73;93052.03;2071437;69;20167;-74
2021/06/26 04:21:13;;;;;;;3.00;2.40;;;;;;;16.51;71.11;93046.44;2071514;69;20144;-74
2021/06/26 04:23:38;;;;;;;4.63;2.53;;;;;;;16.51;71.56;93054.97;2071592;69;20172;-75
2021/06/26 04:26:04;;;;;;;4.57;2.22;;;;;;;16.78;68.64;93042.69;2071770;69;20152;-76
2021/06/26 04:28:30;;;;;;;3.17;2.20;;;;;;;16.64;69.83;93039.94;2071946;69;20518;-76
2021/06/26 04:30:58;;;;;;;3.63;1.80;;;;;;;16.59;69.67;93046.81;2071912;69;20156;-75
2021/06/26 04:33:27;;;;;;;2.83;2.30;;;;;;;16.65;68.38;93040.66;2071968;69;20530;-76
2021/06/26 04:35:53;;;;;;;2.50;2.10;;;;;;;16.69;68.81;93033.03;2072036;69;20144;-75
2021/06/26 04:38:22;;;;;;;3.05;2.13;;;;;;;16.62;69.02;93039.09;2071942;69;20153;-75
2021/06/26 04:40:53;;;;;;;3.40;2.08;;;;;;;16.79;68.71;93040.56;2072001;69;20159;-76
2021/06/26 04:43:19;;;;;;;4.57;2.15;;;;;;;16.75;69.77;93044.69;2071914;69;20602;-75
2021/06/26 04:45:48;;;;;;;4.25;2.50;;;;;;;16.26;72.87;93048.22;2071862;69;20146;-75
2021/06/26 04:48:19;;;;;;;2.85;2.33;;;;;;;16.53;71.21;93043.69;2071940;69;20132;-76
2021/06/26 04:50:46;;;;;;;3.35;2.20;;;;;;;16.44;72.12;93056.06;2071865;69;20144;-75
2021/06/26 04:53:11;;;;;;;4.40;2.50;;;;;;;16.30;73.37;93056.16;2071945;69;20639;-77
2021/06/26 04:55:37;;;;;;;2.75;2.40;;;;;;;16.42;72.01;93051.03;2071997;69;20160;-77
2021/06/26 04:58:03;;;;;;;4.75;3.30;;;;;;;16.23;71.63;93046.63;2071878;69;20235;-77
2021/06/26 05:00:28;;;;;;;5.30;2.70;;;;;;;16.74;69.01;93054.59;2071850;69;20237;-76
2021/06/26 05:02:54;;;;;;;3.80;2.50;;;;;;;16.83;70.78;93052.13;2071911;69;20132;-77
2021/06/26 05:05:19;;;;;;;3.60;2.25;;;;;;;17.03;68.25;93050.13;2072115;69;20154;-76
2021/06/26 05:07:45;;;;;;;2.90;2.22;;;;;;;16.92;69.38;93063.19;2072025;69;20144;-77
2021/06/26 05:10:11;;;;;;;3.78;2.40;;;;;;;16.72;70.53;93057.38;2071920;69;20227;-77
2021/06/26 05:12:42;;;;;;;3.60;2.58;;;;;;;16.58;70.10;93051.00;2071857;69;20625;-76
2021/06/26 05:15:09;;;;;;;3.25;2.38;;;;;;;16.84;69.75;93056.41;2071900;69;20208;-76
2021/06/26 05:17:34;;;;;;;2.60;2.40;;;;;;;16.82;69.70;93050.66;2072032;69;20738;-76
2021/06/26 05:20:00;;;;;;;2.83;2.55;;;;;;;17.13;68.11;93049.81;2071888;69;20140;-77
2021/06/26 05:22:26;;;;;;;9.55;2.50;;;;;;;17.08;68.32;93056.72;2071845;69;20132;-76
2021/06/26 05:24:51;;;;;;;2.80;2.28;;;;;;;17.35;66.51;93056.44;2071820;69;20250;-74
2021/06/26 05:27:17;;;;;;;3.45;2.35;;;;;;;17.18;68.25;93051.44;2071881;69;20160;-74
2021/06/26 05:29:43;;;;;;;3.97;2.70;;;;;;;16.69;70.93;93050.09;2071786;69;20152;-74
2021/06/26 05:32:10;;;;;;;3.00;2.42;;;;;;;16.76;71.41;93042.56;2071863;69;20634;-74
2021/06/26 05:34:36;;;;;;;4.35;2.33;;;;;;;17.27;67.01;93041.88;2071767;69;20580;-74
2021/06/26 05:37:03;;;;;;;6.93;2.50;;;;;;;17.18;69.16;93040.06;2071647;69;20142;-74
2021/06/26 05:39:28;;;;;;;3.60;2.78;;;;;;;17.02;70.18;93042.97;2071705;69;20171;-73
2021/06/26 05:41:54;;;;;;;3.13;2.40;;;;;;;17.30;67.13;93043.44;2071837;69;20140;-74
2021/06/26 05:44:20;;;;;;;4.15;2.47;;;;;;;17.44;66.75;93041.16;2071847;69;20179;-76
2021/06/26 05:46:45;;;;;;;2.58;2.38;;;;;;;17.70;66.77;93043.63;2071934;69;20140;-75
2021/06/26 05:49:11;;;;;;;3.15;2.42;;;;;;;17.83;66.45;93042.03;2071906;69;20128;-75
2021/06/26 05:51:36;;;;;;;3.50;2.55;;;;;;;17.88;65.29;93052.19;2071820;69;20144;-75
2021/06/26 05:54:02;;;;;;;2.53;2.30;;;;;;;17.92;64.81;93049.50;2071728;69;20569;-76
2021/06/26 05:56:28;;;;;;;3.35;2.67;;;;;;;17.99;63.37;93054.03;2071713;69;20637;-76
2021/06/26 05:58:53;;;;;;;3.58;2.55;;;;;;;18.08;63.48;93049.38;2071799;69;20606;-77
2021/06/26 06:01:19;;;;;;;3.97;2.35;;;;;;;17.93;65.59;93043.16;2071797;69;20152;-76
2021/06/26 06:03:46;;;;;;;2.70;2.45;;;;;;;17.99;63.07;93051.91;2071756;69;20152;-75
2021/06/26 06:06:12;;;;;;;3.15;2.58;;;;;;;17.85;65.93;93045.66;2071761;69;20140;-75
2021/06/26 06:08:38;;;;;;;5.38;2.80;;;;;;;17.85;66.65;93042.81;2071712;69;20526;-75
2021/06/26 06:11:04;;;;;;;4.60;2.67;;;;;;;17.74;65.80;93033.16;2071884;69;20144;-76
2021/06/26 06:13:32;;;;;;;2.60;2.40;;;;;;;18.02;64.92;93035.66;2071622;69;20167;-76
2021/06/26 06:15:58;;;;;;;3.00;2.58;;;;;;;18.04;64.64;93035.72;2071734;69;20187;-76
2021/06/26 06:18:24;;;;;;;3.35;2.70;;;;;;;17.87;66.09;93037.22;2071894;69;20132;-76
2021/06/26 06:20:49;;;;;;;2.50;2.30;;;;;;;18.23;63.93;93040.00;2071694;69;20140;-75
2021/06/26 06:23:15;;;;;;;2.78;2.10;;;;;;;18.45;61.38;93032.28;2071679;69;20602;-74
2021/06/26 06:25:41;;;;;;;3.95;2.20;;;;;;;18.59;63.71;93026.34;2071649;69;20164;-75
2021/06/26 06:28:07;;;;;;;4.10;2.20;;;;;;;18.64;62.09;93016.56;2071878;69;20145;-76
2021/06/26 06:30:35;;;;;;;6.20;2.50;;;;;;;18.64;61.38;93025.13;2068335;69;20140;-75
2021/06/26 06:33:05;;;;;;;2.40;2.20;;;;;;;18.69;62.43;93020.31;2071629;69;20235;-78
2021/06/26 06:35:32;;;;;;;3.92;2.10;;;;;;;18.86;60.80;93005.25;2071767;69;20231;-75
2021/06/26 06:37:58;;;;;;;2.97;2.35;;;;;;;19.04;60.00;93020.16;2071730;69;20148;-75
2021/06/26 06:40:24;;;;;;;2.80;2.10;;;;;;;19.21;60.40;93009.28;2071860;69;20140;-74
2021/06/26 06:42:50;;;;;;;3.22;2.35;;;;;;;18.78;60.51;93016.38;2071694;69;20166;-74
2021/06/26 06:45:18;;;;;;;2.53;2.33;;;;;;;19.09;61.21;93011.72;2071633;69;20155;-74
2021/06/26 06:47:44;;;;;;;2.78;2.00;;;;;;;19.38;58.09;93008.44;2071649;69;20266;-74
2021/06/26 06:50:11;;;;;;;4.65;2.20;;;;;;;19.53;60.94;93007.50;2071427;69;20148;-75
2021/06/26 06:52:37;;;;;;;4.90;2.30;;;;;;;19.00;59.98;93010.72;2071708;69;20144;-77
2021/06/26 06:55:05;;;;;;;3.22;1.80;;;;;;;19.48;59.64;93005.91;2071630;69;20156;-75
2021/06/26 06:57:31;;;;;;;2.20;2.00;;;;;;;19.43;58.26;93001.47;2071617;69;20148;-74
2021/06/26 06:59:57;;;;;;;3.05;2.20;;;;;;;19.45;59.38;92995.09;2071795;69;20598;-74
2021/06/26 07:02:23;;;;;;;3.53;2.13;;;;;;;19.59;59.07;92997.69;2071625;69;20235;-76
2021/06/26 07:04:49;;;;;;;2.10;1.90;;;;;;;19.60;58.14;92996.28;2071525;69;20679;-74
2021/06/26 07:07:16;;;;;;;2.13;1.80;;;;;;;19.58;59.15;92996.22;2071449;69;20140;-75
2021/06/26 07:09:42;;;;;;;2.45;1.80;;;;;;;19.35;59.43;92991.91;2071564;69;20507;-74
2021/06/26 07:12:08;;;;;;;2.17;1.98;;;;;;;19.12;60.48;92987.59;2071505;69;20587;-74
2021/06/26 07:14:35;;;;;;;2.20;1.98;;;;;;;19.34;60.17;92991.19;2071473;69;20611;-75
2021/06/26 07:17:00;;;;;;;2.83;2.05;;;;;;;19.26;59.59;92985.94;2071498;69;20145;-75
2021/06/26 07:19:26;;;;;;;2.88;2.20;;;;;;;18.94;61.02;92977.00;2071624;69;20179;-76
2021/06/26 07:21:52;;;;;;;3.42;2.33;;;;;;;18.82;61.22;92978.72;2071560;69;20148;-78
2021/06/26 07:24:18;;;;;;;3.03;2.10;;;;;;;19.02;61.69;92971.59;2071566;69;20155;-80
2021/06/26 07:26:44;;;;;;;2.30;2.10;;;;;;;19.39;61.49;92972.06;2071866;69;20155;-79
2021/06/26 07:29:10;;;;;;;3.17;2.33;;;;;;;19.42;59.88;92967.88;2071532;69;20140;-82
2021/06/26 07:31:36;;;;;;;2.42;1.90;;;;;;;19.40;59.79;92964.97;2071788;69;20220;-84
2021/06/26 07:34:01;;;;;;;2.75;2.08;;;;;;;19.32;60.06;92962.56;2071915;69;20239;-82
2021/06/26 07:36:27;;;;;;;3.85;2.17;;;;;;;19.36;60.21;92965.56;2071879;69;20291;-80
2021/06/26 07:38:53;;;;;;;2.60;1.80;;;;;;;19.18;59.69;92957.13;2071531;69;20235;-76
2021/06/26 07:41:19;;;;;;;2.30;1.88;;;;;;;19.38;58.96;92950.59;2071539;69;20147;-76
2021/06/26 07:43:45;;;;;;;1.83;1.73;;;;;;;19.50;59.57;92954.59;2068085;69;20195;-75
2021/06/26 07:46:11;;;;;;;1.88;1.60;;;;;;;19.57;58.22;92952.66;2068259;69;20148;-74
2021/06/26 07:48:37;;;;;;;1.95;1.75;;;;;;;19.63;56.89;92955.00;2068104;69;20205;-75
2021/06/26 07:51:03;;;;;;;3.33;1.58;;;;;;;19.60;57.02;92944.88;2071473;69;20152;-77
2021/06/26 07:53:29;;;;;;;2.08;1.67;;;;;;;19.70;56.11;92954.53;2071506;69;20183;-74
2021/06/26 07:55:54;;;;;;;1.70;1.52;;;;;;;19.60;54.17;92939.16;2071550;69;20576;-74
2021/06/26 07:58:22;;;;;;;1.50;1.40;;;;;;;19.69;55.30;92935.91;2071424;69;20137;-75
2021/06/26 08:00:48;;;;;;;1.70;1.60;;;;;;;19.79;54.09;92935.50;2071808;69;20615;-75
2021/06/26 08:03:17;;;;;;;2.28;1.65;;;;;;;19.74;54.28;92931.06;2072016;69;20144;-77
2021/06/26 08:05:43;;;;;;;3.45;1.30;;;;;;;19.78;54.96;92928.31;2071975;69;20587;-76
2021/06/26 08:08:09;;;;;;;1.50;1.40;;;;;;;20.18;53.91;92922.34;2072090;69;20176;-76
2021/06/26 08:10:35;;;;;;;1.50;1.40;;;;;;;20.23;54.50;92926.78;2071965;69;20144;-75
2021/06/26 08:13:01;;;;;;;1.77;1.42;;;;;;;20.18;54.40;92913.78;2072001;69;20206;-75
2021/06/26 08:15:26;;;;;;;1.40;1.25;;;;;;;20.52;52.11;92914.03;2072014;69;20210;-75
2021/06/26 08:17:52;;;;;;;2.35;1.15;;;;;;;20.60;49.31;92913.53;2072012;69;20511;-75
2021/06/26 08:20:18;;;;;;;1.58;1.02;;;;;;;20.81;52.47;92913.41;2072047;69;20168;-75
2021/06/26 08:22:44;;;;;;;1.60;1.30;;;;;;;21.18;52.29;92902.16;2071885;69;20602;-76
2021/06/26 08:25:10;;;;;;;1.42;1.30;;;;;;;21.37;50.75;92898.34;2071841;69;20155;-75
2021/06/26 08:27:36;;;;;;;2.17;1.40;;;;;;;21.57;50.19;92901.69;2071899;69;20144;-75
2021/06/26 08:30:03;;;;;;;1.42;1.23;;;;;;;21.77;47.39;92898.56;2072037;69;20176;-75
2021/06/26 08:32:28;;;;;;;1.40;1.30;;;;;;;22.06;49.62;92899.91;2071998;69;20171;-76
2021/06/26 08:34:54;;;;;;;1.30;1.20;;;;;;;22.69;47.80;92894.72;2072011;69;20148;-76
2021/06/26 08:37:19;;;;;;;1.38;1.27;;;;;;;23.34;46.06;92889.41;2071911;69;20176;-76
2021/06/26 08:39:46;;;;;;;1.30;1.20;;;;;;;23.63;44.86;92895.59;2071911;69;20140;-75
2021/06/26 08:42:11;;;;;;;1.40;1.30;;;;;;;24.12;45.68;92882.69;2071927;69;20162;-75
2021/06/26 08:44:39;;;;;;;1.65;1.25;;;;;;;25.03;44.75;92885.91;2068416;69;20147;-76
2021/06/26 08:47:05;;;;;;;1.30;1.20;;;;;;;24.88;44.59;92878.56;2072031;69;20152;-75
2021/06/26 08:49:31;;;;;;;1.30;1.20;;;;;;;24.84;46.09;92887.16;2071765;69;20179;-76
2021/06/26 08:51:57;;;;;;;1.27;1.17;;;;;;;26.15;42.35;92883.19;2071699;69;20610;-77
2021/06/26 08:54:23;;;;;;;1.10;1.10;;;;;;;25.12;41.35;92888.91;2071761;69;20282;-77
2021/06/26 08:56:50;;;;;;;1.30;1.20;;;;;;;25.48;44.42;92888.50;2071896;69;20144;-76
2021/06/26 08:59:16;;;;;;;1.85;1.50;;;;;;;25.63;42.09;92886.44;2071689;69;20236;-76
2021/06/26 09:01:43;;;;;;;2.67;1.05;;;;;;;26.23;43.57;92879.63;2068403;69;20225;-76
2021/06/26 09:04:13;;;;;;;1.20;1.10;;;;;;;26.21;38.99;92871.69;2071917;69;20172;-76
2021/06/26 09:06:57;;;;;;;1.40;1.30;;;;;;;26.08;42.63;92870.91;2071924;69;20147;-77
2021/06/26 09:09:33;;;;;;;1.23;1.10;;;;;;;26.45;40.81;92859.56;2071733;69;20144;-75
2021/06/26 09:12:02;;;;;;;4.78;1.33;;;;;;;26.64;37.87;92863.25;2071536;69;20137;-74
2021/06/26 09:14:28;;;;;;;1.30;1.20;;;;;;;27.18;37.66;92858.34;2071665;69;20222;-74
2021/06/26 09:16:54;;;;;;;1.13;0.98;;;;;;;26.81;37.70;92856.06;2071816;69;20199;-75
2021/06/26 09:19:21;;;;;;;1.40;0.90;;;;;;;27.35;39.94;92851.84;2071721;69;20164;-75
2021/06/26 09:21:59;;;;;;;1.10;1.00;;;;;;;27.77;38.68;92850.41;2071704;69;20144;-74
2021/06/26 09:24:24;;;;;;;1.42;0.93;;;;;;;27.51;39.14;92856.91;2068358;69;20187;-75
2021/06/26 09:26:59;;;;;;;1.10;1.00;;;;;;;27.32;35.28;92858.34;2071947;69;20235;-74
2021/06/26 09:29:26;;;;;;;1.35;1.00;;;;;;;26.21;36.21;92853.69;2071864;69;20156;-75
2021/06/26 09:32:13;;;;;;;0.80;0.80;;;;;;;27.93;35.63;92848.94;2071696;69;20251;-75
2021/06/26 09:34:41;;;;;;;1.10;1.00;;;;;;;27.36;34.49;92849.69;2071577;69;20168;-75
2021/06/26 09:37:28;;;;;;;1.73;0.80;;;;;;;27.64;37.17;92843.16;2071660;69;20231;-75
2021/06/26 09:40:02;;;;;;;1.98;0.82;;;;;;;27.39;33.41;92838.81;2068446;69;20578;-75
2021/06/26 09:42:41;;;;;;;1.13;0.65;;;;;;;28.28;34.50;92835.81;2071760;69;20172;-75
2021/06/26 09:45:12;;;;;;;1.73;0.80;;;;;;;28.60;36.06;92835.00;2071650;69;20234;-75
2021/06/26 09:47:40;;;;;;;0.90;0.90;;;;;;;28.82;33.98;92836.34;2071745;69;20190;-74
2021/06/26 09:50:10;;;;;;;1.70;0.70;;;;;;;29.43;32.35;92833.03;2071804;69;20159;-75
2021/06/26 09:52:48;;;;;;;0.98;0.60;;;;;;;29.56;33.98;92836.59;2071606;69;20596;-75
2021/06/26 09:55:17;;;;;;;2.15;0.95;;;;;;;29.01;32.77;92828.28;2071645;69;20151;-76
2021/06/26 09:57:43;;;;;;;2.20;1.00;;;;;;;29.41;33.54;92821.44;2071632;69;20245;-75
2021/06/26 10:00:09;;;;;;;0.80;0.80;;;;;;;29.81;34.78;92820.41;2071690;69;20504;-77
2021/06/26 10:02:35;;;;;;;1.00;0.90;;;;;;;30.27;32.59;92818.50;2071658;69;20140;-79
2021/06/26 10:05:05;;;;;;;0.80;0.80;;;;;;;30.29;31.81;92818.50;2071665;69;20243;-77
2021/06/26 10:07:32;;;;;;;0.93;0.80;;;;;;;30.30;32.07;92811.22;2071703;69;20128;-77
2021/06/26 10:09:59;;;;;;;1.50;0.70;;;;;;;30.47;33.35;92808.84;2068300;69;20597;-77
2021/06/26 10:12:25;;;;;;;0.80;0.80;;;;;;;30.48;33.23;92795.75;2071820;69;20132;-78
2021/06/26 10:14:53;;;;;;;0.80;0.80;;;;;;;31.38;31.79;92800.34;2071706;69;20140;-78
2021/06/26 10:17:20;;;;;;;0.70;0.70;;;;;;;30.90;29.24;92793.78;2071717;69;20755;-77
2021/06/26 10:19:49;;;;;;;0.70;0.70;;;;;;;31.56;31.41;92797.13;2071718;69;20171;-77
2021/06/26 10:22:14;;;;;;;0.60;0.60;;;;;;;31.83;31.13;92797.41;2068383;69;20161;-75
2021/06/26 10:24:46;;;;;;;1.42;0.65;;;;;;;31.23;29.93;92796.91;2071567;69;20526;-75
2021/06/26 10:27:20;;;;;;;0.60;0.60;;;;;;;31.66;29.71;92784.63;2071715;69;20248;-77
2021/06/26 10:29:45;;;;;;;0.60;0.60;;;;;;;32.35;29.27;92785.56;2071682;69;20604;-74
2021/06/26 10:32:13;;;;;;;0.68;0.50;;;;;;;32.62;27.97;92783.56;2071680;69;20662;-74
2021/06/26 10:34:45;;;;;;;0.57;0.57;;;;;;;32.25;28.57;92786.44;2071685;69;20164;-74
2021/06/26 10:37:22;;;;;;;0.50;0.50;;;;;;;32.78;28.64;92770.09;2071780;69;20136;-76
2021/06/26 10:40:05;;;;;;;0.65;0.60;;;;;;;33.55;27.24;92770.56;2071619;69;20128;-77
2021/06/26 10:42:34;;;;;;;1.33;0.47;;;;;;;33.99;26.04;92776.75;2071325;69;20607;-76
2021/06/26 10:44:59;;;;;;;0.40;0.40;;;;;;;33.90;24.30;92767.47;2070021;69;20658;-76
2021/06/26 10:47:34;;;;;;;0.55;0.50;;;;;;;34.74;22.78;92765.91;2070917;69;20310;-77
2021/06/26 10:50:17;;;;;;;0.90;0.40;;;;;;;33.98;25.84;92763.66;2071163;69;20140;-75
2021/06/26 10:53:01;;;;;;;0.40;0.40;;;;;;;34.83;24.99;92760.56;2071433;69;20156;-76
2021/06/26 10:55:36;;;;;;;1.40;0.47;;;;;;;35.46;24.62;92757.88;2071470;69;20526;-83
2021/06/26 10:58:06;;;;;;;0.30;0.30;;;;;;;36.27;22.92;92754.44;2071447;69;20136;-75
2021/06/26 11:00:39;;;;;;;2.33;0.47;;;;;;;36.71;22.28;92760.94;2071461;69;20181;-75
2021/06/26 11:03:17;;;;;;;0.30;0.30;;;;;;;37.38;22.38;92751.78;2071498;69;20153;-74
2021/06/26 11:05:43;;;;;;;0.70;0.32;;;;;;;37.51;22.12;92749.78;2071442;69;20172;-77
2021/06/26 11:08:17;;;;;;;0.47;0.30;;;;;;;38.44;21.19;92743.72;2071369;69;20190;-74
2021/06/26 11:10:59;;;;;;;1.38;0.32;;;;;;;38.98;19.14;92737.59;2071428;69;20218;-74
2021/06/26 11:13:29;;;;;;;1.60;0.30;;;;;;;41.03;18.18;92745.81;2071411;69;20139;-75
2021/06/26 11:16:09;;;;;;;0.40;0.30;;;;;;;41.98;16.27;92739.75;2071460;69;20141;-74
2021/06/26 11:18:35;;;;;;;0.30;0.30;;;;;;;44.95;12.82;92742.34;2071339;69;20136;-74
2021/06/26 11:21:03;;;;;;;0.57;0.30;;;;;;;45.53;13.44;92746.38;2068124;69;20171;-74
2021/06/26 11:23:29;;;;;;;0.30;0.30;;;;;;;45.29;13.84;92742.19;2071471;69;20251;-74
2021/06/26 11:26:02;;;;;;;0.30;0.20;;;;;;;46.67;14.02;92746.13;2071238;69;20183;-75
2021/06/26 11:28:28;;;;;;;1.50;0.30;;;;;;;46.94;13.19;92738.16;2071463;69;20217;-74
2021/06/26 11:31:02;;;;;;;4.75;0.50;;;;;;;48.51;13.35;92735.09;2071424;69;20523;-76
2021/06/26 11:33:29;;;;;;;0.30;0.30;;;;;;;48.58;12.50;92729.31;2071315;69;20149;-76